createdAt,value
2023-04-02T00:02:00.604Z,57
2023-04-02T00:04:31.514Z,54
2023-04-02T00:07:01.419Z,57
2023-04-02T00:09:31.952Z,56
2023-04-02T00:12:02.204Z,59
2023-04-02T00:14:33.531Z,55
2023-04-02T00:17:04.379Z,58
2023-04-02T00:19:34.947Z,52
2023-04-02T00:22:06.155Z,53
2023-04-02T00:24:36.467Z,52
2023-04-02T00:27:06.612Z,50
2023-04-02T00:29:37.740Z,51
2023-04-02T00:32:08.514Z,59
2023-04-02T00:34:40.995Z,52
2023-04-02T00:37:11.026Z,51
2023-04-02T00:39:41.819Z,49
2023-04-02T00:42:16.165Z,52
2023-04-02T00:44:46.962Z,57
2023-04-02T00:47:17.825Z,56
2023-04-02T00:49:48.767Z,60
2023-04-02T00:52:18.759Z,58
2023-04-02T00:54:49.228Z,55
2023-04-02T00:57:19.936Z,60
2023-04-02T00:59:54.018Z,53
2023-04-02T01:02:24.488Z,58
2023-04-02T01:04:54.548Z,56
2023-04-02T01:07:24.532Z,63
2023-04-02T01:09:54.662Z,57
2023-04-02T01:12:24.841Z,57
2023-04-02T01:14:55.099Z,48
2023-04-02T01:17:24.931Z,55
2023-04-02T01:19:55.568Z,52
2023-04-02T01:22:25.867Z,60
2023-04-02T01:24:56.382Z,61
2023-04-02T01:27:26.585Z,53
2023-04-02T01:29:57.063Z,53
2023-04-02T01:32:28.319Z,47
2023-04-02T01:34:58.869Z,51
2023-04-02T01:37:29.203Z,44
2023-04-02T01:39:59.233Z,51
2023-04-02T01:42:29.458Z,56
2023-04-02T01:44:59.780Z,51
2023-04-02T01:47:29.831Z,41
2023-04-02T01:50:00.276Z,56
2023-04-02T01:52:31.874Z,49
2023-04-02T01:55:02.200Z,48
2023-04-02T01:57:32.496Z,44
2023-04-02T02:00:03.168Z,46
2023-04-02T02:02:33.496Z,46
2023-04-02T02:05:04.508Z,56
2023-04-02T02:07:34.912Z,52
2023-04-02T02:10:04.857Z,47
2023-04-02T02:12:36.203Z,41
2023-04-02T02:15:06.338Z,44
2023-04-02T02:17:36.869Z,39
2023-04-02T02:20:06.898Z,37
2023-04-02T02:22:37.260Z,40
2023-04-02T02:25:07.899Z,47
2023-04-02T02:27:39.088Z,38
2023-04-02T02:30:09.602Z,46
2023-04-02T02:32:40.362Z,52
2023-04-02T02:35:10.597Z,40
2023-04-02T02:37:41.421Z,48
2023-04-02T02:40:11.513Z,52
2023-04-02T02:42:42.359Z,50
2023-04-02T02:45:16.669Z,52
2023-04-02T02:47:47.915Z,52
2023-04-02T02:50:16.791Z,53
2023-04-02T02:52:47.017Z,58
2023-04-02T02:55:17.384Z,58
2023-04-02T02:57:47.963Z,56
2023-04-02T03:00:18.607Z,53
2023-04-02T03:02:50.887Z,48
2023-04-02T03:05:26.376Z,56
2023-04-02T03:07:56.533Z,46
2023-04-02T03:10:26.547Z,48
2023-04-02T03:12:56.759Z,39
2023-04-02T03:15:27.469Z,40
2023-04-02T03:17:57.878Z,44
2023-04-02T03:20:28.571Z,43
2023-04-02T03:22:59.029Z,42
2023-04-02T03:25:29.563Z,41
2023-04-02T03:28:01.827Z,44
2023-04-02T03:30:32.792Z,44
2023-04-02T03:33:03.239Z,41
2023-04-02T03:35:34.095Z,36
2023-04-02T03:38:04.274Z,39
2023-04-02T03:40:34.813Z,42
2023-04-02T03:43:07.333Z,37
2023-04-02T03:45:38.808Z,43
2023-04-02T03:48:09.541Z,34
2023-04-02T03:50:39.583Z,45
2023-04-02T03:53:09.986Z,40
2023-04-02T03:55:40.549Z,39
2023-04-02T03:58:11.141Z,35
2023-04-02T04:00:47.552Z,38
2023-04-02T04:03:18.334Z,33
2023-04-02T04:05:50.232Z,37
2023-04-02T04:08:21.684Z,38
2023-04-02T04:10:52.146Z,36
2023-04-02T04:13:22.478Z,40
2023-04-02T04:15:53.012Z,36
2023-04-02T04:18:24.933Z,38
2023-04-02T04:20:54.973Z,52
2023-04-02T04:23:25.427Z,36
2023-04-02T04:25:55.939Z,35
2023-04-02T04:28:26.321Z,36
2023-04-02T04:30:57.049Z,31
2023-04-02T04:33:27.158Z,40
2023-04-02T04:35:58.046Z,32
2023-04-02T04:38:28.346Z,36
2023-04-02T04:40:58.671Z,37
2023-04-02T04:43:31.064Z,34
2023-04-02T04:46:01.451Z,53
2023-04-02T04:48:34.565Z,46
2023-04-02T04:51:03.396Z,49
2023-04-02T04:53:35.934Z,55
2023-04-02T04:56:18.392Z,57
2023-04-02T04:58:39.143Z,53
2023-04-02T05:01:09.286Z,46
2023-04-02T05:03:40.053Z,40
2023-04-02T05:06:10.103Z,45
2023-04-02T05:08:40.839Z,39
2023-04-02T05:11:11.661Z,36
2023-04-02T05:13:42.072Z,33
2023-04-02T05:16:12.576Z,37
2023-04-02T05:18:43.437Z,31
2023-04-02T05:21:13.896Z,39
2023-04-02T05:23:44.300Z,34
2023-04-02T05:26:15.201Z,30
2023-04-02T05:28:45.229Z,38
2023-04-02T05:31:15.702Z,25
2023-04-02T05:33:46.273Z,32
2023-04-02T05:36:16.454Z,39
2023-04-02T05:38:47.064Z,34
2023-04-02T05:41:17.418Z,37
2023-04-02T05:43:47.594Z,39
2023-04-02T05:46:17.863Z,45
2023-04-02T05:48:48.956Z,52
2023-04-02T05:51:19.401Z,55
2023-04-02T05:53:50.707Z,56
2023-04-02T05:56:21.435Z,57
2023-04-02T05:58:51.789Z,63
2023-04-02T06:01:21.670Z,58
2023-04-02T06:03:52.650Z,61
2023-04-02T06:06:22.735Z,56
2023-04-02T06:08:54.004Z,63
2023-04-02T06:11:25.099Z,57
2023-04-02T06:13:55.422Z,68
2023-04-02T06:16:26.269Z,59
2023-04-02T06:18:59.221Z,54
2023-04-02T06:21:29.741Z,61
2023-04-02T06:24:00.265Z,57
2023-04-02T06:26:32.314Z,61
2023-04-02T06:29:02.755Z,64
2023-04-02T06:31:33.747Z,65
2023-04-02T06:34:03.852Z,45
2023-04-02T06:36:34.694Z,53
2023-04-02T06:39:05.518Z,50
2023-04-02T06:41:35.787Z,51
2023-04-02T06:44:08.648Z,52
2023-04-02T06:46:40.308Z,64
2023-04-02T06:49:10.905Z,55
2023-04-02T06:51:41.366Z,46
2023-04-02T06:54:11.620Z,35
2023-04-02T06:56:44.680Z,39
2023-04-02T06:59:15.259Z,28
2023-04-02T07:01:46.004Z,27
2023-04-02T07:04:16.842Z,24
2023-04-02T07:06:47.921Z,24
2023-04-02T07:09:23.191Z,23
2023-04-02T07:11:53.387Z,20
2023-04-02T07:14:23.698Z,18
2023-04-02T07:16:55.839Z,16
2023-04-02T07:19:26.058Z,15
2023-04-02T07:21:56.438Z,17
2023-04-02T07:24:26.926Z,21
2023-04-02T07:26:57.029Z,15
2023-04-02T07:29:27.831Z,32
2023-04-02T07:31:58.424Z,30
2023-04-02T07:34:31.889Z,19
2023-04-02T07:37:05.025Z,20
2023-04-02T07:39:40.218Z,15
2023-04-02T07:42:08.615Z,13
2023-04-02T07:44:37.464Z,19
2023-04-02T07:47:07.887Z,15
2023-04-02T07:49:38.204Z,21
2023-04-02T07:52:08.502Z,23
2023-04-02T07:54:39.118Z,12
2023-04-02T07:57:09.765Z,11
2023-04-02T07:59:40.388Z,15
2023-04-02T08:02:10.565Z,15
2023-04-02T08:04:40.949Z,16
2023-04-02T08:07:11.952Z,18
2023-04-02T08:09:42.590Z,14
2023-04-02T08:12:12.736Z,15
2023-04-02T08:14:43.619Z,15
2023-04-02T08:17:14.347Z,16
2023-04-02T08:19:54.586Z,14
2023-04-02T08:22:15.686Z,15
2023-04-02T08:24:46.042Z,23
2023-04-02T08:27:16.227Z,27
2023-04-02T08:29:46.396Z,27
2023-04-02T08:32:16.797Z,25
2023-04-02T08:34:46.903Z,17
2023-04-02T08:37:18.450Z,20
2023-04-02T08:39:48.496Z,27
2023-04-02T08:42:19.052Z,31
2023-04-02T08:44:49.276Z,37
2023-04-02T08:47:19.582Z,25
2023-04-02T08:49:48.092Z,47
2023-04-02T08:52:18.249Z,34
2023-04-02T08:54:48.463Z,33
2023-04-02T08:57:19.214Z,30
2023-04-02T08:59:49.365Z,25
2023-04-02T09:02:20.099Z,16
2023-04-02T09:04:50.718Z,27
2023-04-02T09:07:21.372Z,25
2023-04-02T09:09:52.107Z,20
2023-04-02T09:12:22.469Z,22
2023-04-02T09:14:52.891Z,19
2023-04-02T09:17:22.002Z,20
2023-04-02T09:19:52.483Z,17
2023-04-02T09:22:23.375Z,18
2023-04-02T09:24:53.732Z,13
2023-04-02T09:27:26.062Z,27
2023-04-02T09:29:56.521Z,16
2023-04-02T09:32:26.797Z,15
2023-04-02T09:34:57.623Z,12
2023-04-02T09:37:28.806Z,15
2023-04-02T09:39:59.172Z,20
2023-04-02T09:42:29.369Z,19
2023-04-02T09:44:59.920Z,20
2023-04-02T09:47:30.017Z,15
2023-04-02T09:50:00.686Z,19
2023-04-02T09:52:31.575Z,12
2023-04-02T09:55:01.903Z,12
2023-04-02T09:57:32.777Z,20
2023-04-02T10:00:03.147Z,19
2023-04-02T10:02:33.518Z,13
2023-04-02T10:05:04.415Z,18
2023-04-02T10:07:32.875Z,17
2023-04-02T10:10:02.871Z,17
2023-04-02T10:12:33.038Z,15
2023-04-02T10:15:03.410Z,14
2023-04-02T10:17:33.365Z,13
2023-04-02T10:20:03.384Z,16
2023-04-02T10:22:33.603Z,15
2023-04-02T10:25:03.889Z,25
2023-04-02T10:27:34.131Z,13
2023-04-02T10:30:04.872Z,15
2023-04-02T10:32:34.771Z,13
2023-04-02T10:35:04.951Z,13
2023-04-02T10:37:35.113Z,16
2023-04-02T10:40:05.659Z,20
2023-04-02T10:42:35.777Z,23
2023-04-02T10:45:06.532Z,19
2023-04-02T10:47:37.050Z,13
2023-04-02T10:50:07.617Z,16
2023-04-02T10:52:38.089Z,12
2023-04-02T10:55:07.005Z,16
2023-04-02T10:57:37.113Z,17
2023-04-02T11:00:07.088Z,17
2023-04-02T11:02:37.036Z,15
2023-04-02T11:05:07.498Z,23
2023-04-02T11:07:38.081Z,19
2023-04-02T11:10:08.314Z,17
2023-04-02T11:12:41.462Z,12
2023-04-02T11:15:09.405Z,12
2023-04-02T11:17:39.797Z,16
2023-04-02T11:20:09.990Z,21
2023-04-02T11:22:41.474Z,23
2023-04-02T11:25:12.008Z,19
2023-04-02T11:27:42.097Z,13
2023-04-02T11:30:12.529Z,14
2023-04-02T11:32:43.198Z,11
2023-04-02T11:35:13.465Z,11
2023-04-02T11:37:43.460Z,13
2023-04-02T11:40:14.315Z,14
2023-04-02T11:42:44.418Z,12
2023-04-02T11:45:14.796Z,11
2023-04-02T11:47:45.574Z,12
2023-04-02T11:50:15.715Z,19
2023-04-02T11:52:46.050Z,16
2023-04-02T11:55:16.284Z,13
2023-04-02T11:57:47.466Z,13
2023-04-02T12:00:18.260Z,11
2023-04-02T12:02:48.784Z,8
2023-04-02T12:05:19.339Z,9
2023-04-02T12:07:49.365Z,9
2023-04-02T12:10:20.026Z,8
2023-04-02T12:12:50.302Z,9
2023-04-02T12:15:20.692Z,7
2023-04-02T12:17:51.235Z,7
2023-04-02T12:20:21.282Z,9
2023-04-02T12:22:51.630Z,11
2023-04-02T12:25:22.258Z,11
2023-04-02T12:27:52.726Z,11
2023-04-02T12:30:22.045Z,11
2023-04-02T12:32:52.314Z,9
2023-04-02T12:35:22.774Z,7
2023-04-02T12:37:52.884Z,9
2023-04-02T12:40:22.986Z,8
2023-04-02T12:42:53.804Z,12
2023-04-02T12:45:24.202Z,17
2023-04-02T12:47:55.303Z,12
2023-04-02T12:50:26.751Z,27
2023-04-02T12:52:56.745Z,8
2023-04-02T12:55:26.811Z,5
2023-04-02T12:57:57.100Z,8
2023-04-02T13:00:27.165Z,11
2023-04-02T13:02:57.297Z,13
2023-04-02T13:05:27.755Z,7
2023-04-02T13:07:58.094Z,12
2023-04-02T13:10:28.714Z,5
2023-04-02T13:12:58.854Z,8
2023-04-02T13:15:30.214Z,10
2023-04-02T13:18:01.059Z,36
2023-04-02T13:20:31.429Z,44
2023-04-02T13:23:03.079Z,28
2023-04-02T13:25:33.661Z,13
2023-04-02T13:28:02.660Z,27
2023-04-02T13:30:33.673Z,42
2023-04-02T13:33:04.808Z,8
2023-04-02T13:35:34.925Z,5
2023-04-02T13:38:03.791Z,7
2023-04-02T13:40:34.930Z,8
2023-04-02T13:43:05.146Z,7
2023-04-02T13:45:35.541Z,12
2023-04-02T13:48:06.165Z,59
2023-04-02T13:50:36.447Z,16
2023-04-02T13:53:09.789Z,18
2023-04-02T13:55:38.139Z,13
2023-04-02T13:58:12.613Z,37
2023-04-02T14:00:43.969Z,53
2023-04-02T14:03:13.947Z,43
2023-04-02T14:05:44.580Z,24
2023-04-02T14:08:14.966Z,40
2023-04-02T14:10:46.126Z,20
2023-04-02T14:13:16.275Z,18
2023-04-02T14:15:47.476Z,23
2023-04-02T14:18:17.766Z,12
2023-04-02T14:20:49.179Z,15
2023-04-02T14:23:18.934Z,16
2023-04-02T14:25:49.668Z,28
2023-04-02T14:28:20.324Z,13
2023-04-02T14:30:51.012Z,15
2023-04-02T14:33:21.423Z,12
2023-04-02T14:35:51.582Z,11
2023-04-02T14:38:21.693Z,12
2023-04-02T14:40:51.844Z,12
2023-04-02T14:43:22.234Z,23
2023-04-02T14:45:52.604Z,17
2023-04-02T14:48:23.036Z,17
2023-04-02T14:50:52.830Z,14
2023-04-02T14:53:22.024Z,18
2023-04-02T14:55:52.403Z,12
2023-04-02T14:58:24.129Z,12
2023-04-02T15:00:55.196Z,12
2023-04-02T15:03:24.530Z,9
2023-04-02T15:05:54.685Z,8
2023-04-02T15:08:24.943Z,11
2023-04-02T15:10:55.301Z,5
2023-04-02T15:13:25.614Z,7
2023-04-02T15:15:55.953Z,8
2023-04-02T15:18:26.368Z,11
2023-04-02T15:20:56.820Z,5
2023-04-02T15:23:27.374Z,9
2023-04-02T15:25:57.123Z,6
2023-04-02T15:28:27.666Z,8
2023-04-02T15:30:58.309Z,8
2023-04-02T15:33:28.902Z,9
2023-04-02T15:36:00.069Z,8
2023-04-02T15:38:30.068Z,8
2023-04-02T15:40:59.983Z,8
2023-04-02T15:43:30.328Z,13
2023-04-02T15:46:00.864Z,8
2023-04-02T15:48:29.650Z,9
2023-04-02T15:50:59.771Z,5
2023-04-02T15:53:30.569Z,6
2023-04-02T15:56:00.890Z,8
2023-04-02T15:58:31.853Z,14
2023-04-02T16:01:02.411Z,15
2023-04-02T16:03:31.277Z,24
2023-04-02T16:06:02.029Z,16
2023-04-02T16:08:32.131Z,9
2023-04-02T16:11:01.145Z,11
2023-04-02T16:13:31.275Z,9
2023-04-02T16:16:01.958Z,11
2023-04-02T16:18:32.035Z,9
2023-04-02T16:21:02.720Z,16
2023-04-02T16:23:32.955Z,12
2023-04-02T16:26:03.514Z,15
2023-04-02T16:28:34.009Z,11
2023-04-02T16:31:04.990Z,11
2023-04-02T16:33:34.048Z,8
2023-04-02T16:36:04.100Z,11
2023-04-02T16:38:32.721Z,11
2023-04-02T16:41:08.148Z,13
2023-04-02T16:43:32.860Z,15
2023-04-02T16:46:03.168Z,8
2023-04-02T16:48:33.568Z,9
2023-04-02T16:51:03.754Z,13
2023-04-02T16:53:33.880Z,12
2023-04-02T16:56:04.507Z,15
2023-04-02T16:58:34.743Z,12
2023-04-02T17:01:05.092Z,16
2023-04-02T17:03:35.382Z,12
2023-04-02T17:06:05.929Z,15
2023-04-02T17:08:36.021Z,9
2023-04-02T17:11:06.666Z,12
2023-04-02T17:13:36.977Z,18
2023-04-02T17:16:07.543Z,21
2023-04-02T17:18:37.779Z,15
2023-04-02T17:21:07.804Z,19
2023-04-02T17:23:46.139Z,16
2023-04-02T17:26:07.716Z,26
2023-04-02T17:28:37.820Z,24
2023-04-02T17:31:08.021Z,28
2023-04-02T17:33:38.056Z,25
2023-04-02T17:36:08.031Z,25
2023-04-02T17:38:38.575Z,21
2023-04-02T17:41:09.666Z,20
2023-04-02T17:43:39.824Z,19
2023-04-02T17:46:09.929Z,24
2023-04-02T17:48:39.757Z,20
2023-04-02T17:51:10.379Z,25
2023-04-02T17:53:40.692Z,25
2023-04-02T17:56:10.453Z,17
2023-04-02T17:58:40.634Z,16
2023-04-02T18:01:11.220Z,20
2023-04-02T18:03:41.407Z,15
2023-04-02T18:06:10.148Z,16
2023-04-02T18:08:38.802Z,12
2023-04-02T18:11:08.765Z,17
2023-04-02T18:13:39.022Z,16
2023-04-02T18:16:09.176Z,17
2023-04-02T18:18:43.541Z,47
2023-04-02T18:21:14.299Z,18
2023-04-02T18:23:44.727Z,20
2023-04-02T18:26:13.381Z,13
2023-04-02T18:28:43.624Z,18
2023-04-02T18:31:14.007Z,16
2023-04-02T18:33:43.962Z,40
2023-04-02T18:36:14.131Z,39
2023-04-02T18:38:44.264Z,39
2023-04-02T18:41:14.220Z,49
2023-04-02T18:43:44.313Z,55
2023-04-02T18:46:14.491Z,59
2023-04-02T18:48:45.536Z,57
2023-04-02T18:51:16.287Z,59
2023-04-02T18:53:47.173Z,70
2023-04-02T18:56:17.144Z,66
2023-04-02T18:58:47.232Z,68
2023-04-02T19:01:17.397Z,68
2023-04-02T19:03:48.279Z,76
2023-04-02T19:06:19.126Z,68
2023-04-02T19:08:49.774Z,69
2023-04-02T19:11:19.896Z,72
2023-04-02T19:13:48.952Z,66
2023-04-02T19:16:19.194Z,71
2023-04-02T19:18:49.909Z,63
2023-04-02T19:21:20.375Z,65
2023-04-02T19:23:50.629Z,66
2023-04-02T19:26:21.023Z,63
2023-04-02T19:28:51.056Z,77
2023-04-02T19:31:22.204Z,89
2023-04-02T19:33:53.324Z,99
2023-04-02T19:36:23.752Z,101
2023-04-02T19:38:54.086Z,90
2023-04-02T19:41:24.210Z,88
2023-04-02T19:43:54.621Z,73
2023-04-02T19:46:24.871Z,52
2023-04-02T19:48:54.924Z,60
2023-04-02T19:51:24.902Z,49
2023-04-02T19:53:55.667Z,47
2023-04-02T19:56:26.286Z,33
2023-04-02T19:58:58.275Z,39
2023-04-02T20:01:27.712Z,33
2023-04-02T20:03:56.303Z,31
2023-04-02T20:06:26.507Z,33
2023-04-02T20:08:56.520Z,33
2023-04-02T20:11:26.801Z,41
2023-04-02T20:13:55.688Z,39
2023-04-02T20:16:25.841Z,39
2023-04-02T20:18:55.953Z,45
2023-04-02T20:21:26.485Z,45
2023-04-02T20:23:57.086Z,39
2023-04-02T20:26:27.123Z,33
2023-04-02T20:28:57.612Z,32
2023-04-02T20:31:27.700Z,36
2023-04-02T20:33:57.973Z,37
2023-04-02T20:36:28.222Z,39
2023-04-02T20:38:58.358Z,36
2023-04-02T20:41:28.303Z,67
2023-04-02T20:43:56.567Z,88
2023-04-02T20:46:26.686Z,81
2023-04-02T20:48:56.999Z,56
2023-04-02T20:51:27.819Z,52
2023-04-02T20:53:58.388Z,64
2023-04-02T20:56:29.329Z,64
2023-04-02T20:58:59.362Z,66
2023-04-02T21:01:29.946Z,68
2023-04-02T21:04:00.010Z,72
2023-04-02T21:06:30.253Z,71
2023-04-02T21:09:01.118Z,65
2023-04-02T21:11:31.904Z,68
2023-04-02T21:14:00.567Z,73
2023-04-02T21:16:30.532Z,70
2023-04-02T21:19:00.375Z,67
2023-04-02T21:21:31.105Z,68
2023-04-02T21:24:01.195Z,68
2023-04-02T21:26:33.250Z,67
2023-04-02T21:29:01.915Z,76
2023-04-02T21:31:31.991Z,66
2023-04-02T21:34:01.852Z,67
2023-04-02T21:36:32.521Z,69
2023-04-02T21:39:03.041Z,70
2023-04-02T21:41:33.355Z,67
2023-04-02T21:44:03.704Z,64
2023-04-02T21:46:34.361Z,67
2023-04-02T21:49:06.034Z,57
2023-04-02T21:51:36.321Z,52
2023-04-02T21:54:06.644Z,44
2023-04-02T21:56:37.201Z,40
2023-04-02T21:59:08.869Z,28
2023-04-02T22:01:39.472Z,25
2023-04-02T22:04:10.136Z,26
2023-04-02T22:06:40.599Z,22
2023-04-02T22:09:11.279Z,20
2023-04-02T22:11:42.103Z,26
2023-04-02T22:14:12.363Z,23
2023-04-02T22:16:43.913Z,28
2023-04-02T22:19:14.573Z,20
2023-04-02T22:21:45.380Z,15
2023-04-02T22:24:16.026Z,21
2023-04-02T22:26:46.464Z,15
2023-04-02T22:29:17.067Z,20
2023-04-02T22:31:48.080Z,21
2023-04-02T22:34:18.280Z,18
2023-04-02T22:36:51.734Z,20
2023-04-02T22:39:22.221Z,23
2023-04-02T22:41:52.748Z,21
2023-04-02T22:44:23.364Z,28
2023-04-02T22:46:53.901Z,17
2023-04-02T22:49:24.387Z,26
2023-04-02T22:51:54.813Z,20
2023-04-02T22:54:25.360Z,16
2023-04-02T22:56:55.912Z,18
2023-04-02T22:59:24.962Z,19
2023-04-02T23:01:55.693Z,16
2023-04-02T23:04:25.814Z,23
2023-04-02T23:06:57.062Z,20
2023-04-02T23:09:27.472Z,17
2023-04-02T23:11:58.322Z,22
2023-04-02T23:14:28.863Z,19
2023-04-02T23:16:59.657Z,23
2023-04-02T23:19:28.867Z,19
2023-04-02T23:21:59.626Z,12
2023-04-02T23:24:28.753Z,16
2023-04-02T23:26:59.487Z,19
2023-04-02T23:29:29.763Z,17
2023-04-02T23:32:00.131Z,17
2023-04-02T23:34:30.429Z,18
2023-04-02T23:37:01.393Z,13
2023-04-02T23:39:31.656Z,16
2023-04-02T23:42:02.502Z,20
2023-04-02T23:44:32.657Z,15
2023-04-02T23:47:03.323Z,16
2023-04-02T23:49:32.595Z,17
2023-04-02T23:52:02.870Z,16
2023-04-02T23:54:33.674Z,17
2023-04-02T23:57:04.171Z,18
2023-04-02T23:59:34.432Z,20
